createdAt,value
2017-10-06T00:01:34.147Z,10.30
2017-10-06T00:04:01.602Z,10.30
2017-10-06T00:06:29.062Z,10.30
2017-10-06T00:08:56.534Z,10.30
2017-10-06T00:11:23.991Z,10.30
2017-10-06T00:13:51.775Z,10.30
2017-10-06T00:16:19.234Z,10.20
2017-10-06T00:18:46.686Z,10.20
2017-10-06T00:21:14.180Z,10.20
2017-10-06T00:23:41.646Z,10.20
2017-10-06T00:26:09.185Z,10.20
2017-10-06T00:28:36.691Z,10.20
2017-10-06T00:31:04.162Z,10.20
2017-10-06T00:33:31.622Z,10.20
2017-10-06T00:35:59.108Z,10.20
2017-10-06T00:38:26.956Z,10.20
2017-10-06T00:40:54.807Z,10.30
2017-10-06T00:43:22.458Z,10.30
2017-10-06T00:45:49.919Z,10.30
2017-10-06T00:48:17.373Z,10.30
2017-10-06T00:50:45.130Z,10.30
2017-10-06T00:53:12.595Z,10.40
2017-10-06T00:55:40.459Z,10.40
2017-10-06T00:58:07.922Z,10.40
2017-10-06T01:00:35.818Z,10.40
2017-10-06T01:03:03.284Z,10.40
2017-10-06T01:05:30.744Z,10.40
2017-10-06T01:07:58.206Z,10.40
2017-10-06T01:10:25.675Z,10.40
2017-10-06T01:12:53.131Z,10.30
2017-10-06T01:15:20.593Z,10.30
2017-10-06T01:17:48.129Z,10.20
2017-10-06T01:20:15.582Z,10.20
2017-10-06T01:22:43.039Z,10.20
2017-10-06T01:25:10.504Z,10.20
2017-10-06T01:27:38.024Z,10.20
2017-10-06T01:30:05.533Z,10.10
2017-10-06T01:32:32.984Z,10.10
2017-10-06T01:35:00.446Z,10.10
2017-10-06T01:37:28.211Z,10.10
2017-10-06T01:39:55.671Z,10.00
2017-10-06T01:42:23.118Z,9.90
2017-10-06T01:44:50.586Z,9.90
2017-10-06T01:47:18.446Z,9.70
2017-10-06T01:49:45.902Z,9.70
2017-10-06T01:52:13.367Z,9.70
2017-10-06T01:54:41.220Z,9.70
2017-10-06T01:57:08.679Z,9.70
2017-10-06T01:59:36.179Z,9.70
2017-10-06T02:02:03.642Z,9.80
2017-10-06T02:04:31.096Z,9.90
2017-10-06T02:06:58.544Z,9.90
2017-10-06T02:09:25.995Z,9.90
2017-10-06T02:11:53.487Z,9.80
2017-10-06T02:14:20.939Z,9.80
2017-10-06T02:16:48.394Z,9.80
2017-10-06T02:19:15.871Z,9.80
2017-10-06T02:21:43.323Z,9.80
2017-10-06T02:24:10.771Z,9.80
2017-10-06T02:26:38.266Z,9.70
2017-10-06T02:29:05.722Z,9.60
2017-10-06T02:31:33.589Z,9.50
2017-10-06T02:34:01.469Z,9.50
2017-10-06T02:36:28.919Z,9.50
2017-10-06T02:38:56.376Z,9.50
2017-10-06T02:41:23.859Z,9.60
2017-10-06T02:43:51.323Z,9.70
2017-10-06T02:46:18.785Z,9.70
2017-10-06T02:48:46.371Z,9.70
2017-10-06T02:51:13.825Z,9.70
2017-10-06T02:53:41.277Z,9.70
2017-10-06T02:56:08.928Z,9.70
2017-10-06T02:58:36.384Z,9.80
2017-10-06T03:01:03.836Z,9.80
2017-10-06T03:03:31.496Z,9.80
2017-10-06T03:05:58.956Z,9.80
2017-10-06T03:08:26.819Z,9.80
2017-10-06T03:10:54.287Z,9.80
2017-10-06T03:13:22.151Z,9.70
2017-10-06T03:15:50.048Z,9.70
2017-10-06T03:18:17.505Z,9.70
2017-10-06T03:20:44.967Z,9.70
2017-10-06T03:23:12.446Z,9.70
2017-10-06T03:25:39.904Z,9.70
2017-10-06T03:28:07.387Z,9.70
2017-10-06T03:30:34.865Z,9.60
2017-10-06T03:33:02.329Z,9.60
2017-10-06T03:35:29.783Z,9.60
2017-10-06T03:37:57.617Z,9.60
2017-10-06T03:40:25.072Z,9.60
2017-10-06T03:42:52.526Z,9.60
2017-10-06T03:45:20.272Z,9.60
2017-10-06T03:47:47.726Z,9.60
2017-10-06T03:50:15.179Z,9.60
2017-10-06T03:52:43.056Z,9.60
2017-10-06T03:55:10.515Z,9.70
2017-10-06T03:57:37.969Z,9.70
2017-10-06T04:00:05.736Z,9.70
2017-10-06T04:02:33.192Z,9.70
2017-10-06T04:05:01.056Z,9.80
2017-10-06T04:07:28.547Z,9.80
2017-10-06T04:09:55.996Z,9.80
2017-10-06T04:12:23.853Z,9.80
2017-10-06T04:14:51.748Z,9.70
2017-10-06T04:17:19.219Z,9.70
2017-10-06T04:19:46.676Z,9.80
2017-10-06T04:22:14.366Z,9.80
2017-10-06T04:24:41.815Z,9.80
2017-10-06T04:27:09.268Z,9.80
2017-10-06T04:29:36.771Z,9.90
2017-10-06T04:32:04.239Z,9.90
2017-10-06T04:34:31.695Z,9.90
2017-10-06T04:36:59.168Z,9.90
2017-10-06T04:39:26.623Z,9.90
2017-10-06T04:41:54.084Z,9.90
2017-10-06T04:44:21.556Z,9.90
2017-10-06T04:46:49.012Z,9.80
2017-10-06T04:49:16.471Z,9.80
2017-10-06T04:51:43.923Z,9.80
2017-10-06T04:54:11.388Z,9.80
2017-10-06T04:56:38.877Z,9.90
2017-10-06T04:59:06.335Z,9.90
2017-10-06T05:01:33.794Z,9.90
2017-10-06T05:04:01.292Z,9.90
2017-10-06T05:06:28.747Z,9.90
2017-10-06T05:08:56.204Z,9.90
2017-10-06T05:11:23.680Z,10.00
2017-10-06T05:13:51.131Z,9.90
2017-10-06T05:16:18.987Z,9.90
2017-10-06T05:18:46.451Z,9.90
2017-10-06T05:21:13.916Z,9.90
2017-10-06T05:23:41.795Z,9.80
2017-10-06T05:26:09.648Z,9.80
2017-10-06T05:28:37.499Z,9.90
2017-10-06T05:31:05.311Z,9.90
2017-10-06T05:33:32.768Z,9.90
2017-10-06T05:36:00.235Z,9.90
2017-10-06T05:38:28.028Z,9.90
2017-10-06T05:40:55.487Z,9.90
2017-10-06T05:43:22.955Z,9.90
